This is the latest recevied weather packets stored in our database for station/object KB0BDN-13. If no packets are shown the sender has not sent any weather packets the latest 10 day(s).
| Time | Temp. | Humidity | Pressure | Rain* | Wind** | Luminosity | Snow |
|---|---|---|---|---|---|---|---|
| 1777954623 | -0.56° C | 87% | - | 0 mm | - | - | - |
| 1777953723 | -0.56° C | 88% | - | 0 mm | - | - | - |
| 1777952823 | -0.56° C | 88% | - | 0 mm | - | - | - |
| 1777951923 | -0.56° C | 90% | - | 0 mm | - | - | - |
| 1777951022 | -0.56° C | 91% | - | 0 mm | - | - | - |
| 1777950123 | 0° C | 91% | - | 0 mm | - | - | - |
| 1777949222 | 0° C | 91% | - | 0 mm | - | - | - |
| 1777948323 | 0.56° C | 92% | - | 0 mm | - | - | - |
| 1777947422 | 0.56° C | 93% | - | 0 mm | - | - | - |
| 1777946522 | 0.56° C | 93% | - | 0 mm | - | - | - |
| 1777945623 | 0.56° C | 93% | - | 0 mm | - | - | - |
| 1777944722 | 0.56° C | 93% | - | 0 mm | - | - | - |
| 1777943822 | 0.56° C | 93% | - | 0 mm | - | - | - |
| 1777942922 | 0.56° C | 93% | - | 0 mm | - | - | - |
| 1777942022 | 0.56° C | 93% | - | 0.25 mm | - | - | - |
| 1777941122 | 0.56° C | 93% | - | 0.25 mm | - | - | - |
| 1777940222 | 0.56° C | 90% | - | 0.25 mm | - | - | - |
| 1777939322 | 2.22° C | 88% | - | 0.25 mm | - | - | - |
| 1777938422 | 3.33° C | 79% | - | 0 mm | - | - | - |
| 1777937527 | 5° C | 64% | - | 0 mm | - | - | - |
| 1777936627 | 5° C | 64% | - | 0 mm | - | - | - |
| 1777935727 | 5° C | 65% | - | 0 mm | - | - | - |
| 1777934827 | 5.56° C | 65% | - | 0 mm | - | - | - |
| 1777933927 | 5.56° C | 63% | - | 0 mm | - | - | - |
| 1777933027 | 5.56° C | 64% | - | 0 mm | - | - | - |
* Rain latest hour (hover to see other rain measurements)
** Current wind speed in m/s (hover to see current wind gust speed)